createdAt,value
2018-10-02T00:01:44.323Z,4.27
2018-10-02T00:04:12.903Z,4.33
2018-10-02T00:06:41.470Z,4.43
2018-10-02T00:09:11.933Z,4.50
2018-10-02T00:11:45.882Z,4.56
2018-10-02T00:14:19.686Z,4.61
2018-10-02T00:16:48.305Z,4.63
2018-10-02T00:19:16.818Z,4.65
2018-10-02T00:21:45.506Z,4.14
2018-10-02T00:24:14.214Z,4.70
2018-10-02T00:26:43.094Z,4.72
2018-10-02T00:29:11.737Z,4.77
2018-10-02T00:31:40.665Z,4.79
2018-10-02T00:34:09.772Z,4.81
2018-10-02T00:36:38.311Z,4.80
2018-10-02T00:39:07.820Z,4.81
2018-10-02T00:41:36.638Z,4.81
2018-10-02T00:44:05.323Z,4.84
2018-10-02T00:46:34.030Z,4.85
2018-10-02T00:49:02.894Z,4.51
2018-10-02T00:51:31.634Z,4.89
2018-10-02T00:54:00.280Z,4.92
2018-10-02T00:56:28.838Z,4.91
2018-10-02T00:58:57.416Z,4.93
2018-10-02T01:01:26.039Z,4.95
2018-10-02T01:03:54.526Z,4.94
2018-10-02T01:06:23.434Z,4.95
2018-10-02T01:08:52.948Z,4.96
2018-10-02T01:11:21.869Z,4.97
2018-10-02T01:13:50.366Z,4.95
2018-10-02T01:16:18.990Z,4.95
2018-10-02T01:18:47.502Z,4.95
2018-10-02T01:21:16.033Z,4.95
2018-10-02T01:23:44.855Z,4.97
2018-10-02T01:26:13.484Z,4.99
2018-10-02T01:28:42.378Z,5.00
2018-10-02T01:31:10.938Z,5.01
2018-10-02T01:33:39.770Z,5.02
2018-10-02T01:36:09.046Z,5.05
2018-10-02T01:38:37.706Z,5.08
2018-10-02T01:41:06.273Z,5.11
2018-10-02T01:43:34.838Z,5.15
2018-10-02T01:46:03.938Z,5.19
2018-10-02T01:48:32.548Z,5.23
2018-10-02T01:51:01.351Z,5.27
2018-10-02T01:53:30.625Z,5.29
2018-10-02T01:55:59.233Z,5.30
2018-10-02T01:58:28.298Z,5.35
2018-10-02T02:00:57.013Z,5.37
2018-10-02T02:03:25.621Z,5.42
2018-10-02T02:05:54.218Z,5.45
2018-10-02T02:08:22.837Z,5.56
2018-10-02T02:10:51.487Z,5.69
2018-10-02T02:13:20.246Z,5.80
2018-10-02T02:15:48.767Z,5.94
2018-10-02T02:18:17.373Z,6.08
2018-10-02T02:20:46.158Z,6.19
2018-10-02T02:23:14.684Z,6.25
2018-10-02T02:25:43.246Z,6.33
2018-10-02T02:28:11.870Z,6.42
2018-10-02T02:30:40.645Z,6.46
2018-10-02T02:33:09.190Z,6.49
2018-10-02T02:35:38.316Z,6.57
2018-10-02T02:38:06.902Z,6.72
2018-10-02T02:40:35.504Z,6.84
2018-10-02T02:43:04.037Z,6.97
2018-10-02T02:45:32.594Z,7.05
2018-10-02T02:48:06.599Z,7.19
2018-10-02T02:50:40.577Z,7.23
2018-10-02T02:53:14.166Z,7.33
2018-10-02T02:55:42.767Z,7.36
2018-10-02T02:58:11.762Z,7.40
2018-10-02T03:00:40.380Z,7.41
2018-10-02T03:03:09.191Z,7.42
2018-10-02T03:05:37.852Z,7.51
2018-10-02T03:08:06.426Z,7.56
2018-10-02T03:10:35.026Z,7.60
2018-10-02T03:13:03.631Z,7.67
2018-10-02T03:15:32.435Z,7.75
2018-10-02T03:18:01.131Z,7.77
2018-10-02T03:20:29.967Z,7.54
2018-10-02T03:22:58.501Z,7.82
2018-10-02T03:25:27.216Z,7.88
2018-10-02T03:27:56.432Z,7.92
2018-10-02T03:30:25.061Z,7.96
2018-10-02T03:32:53.902Z,8.01
2018-10-02T03:35:22.569Z,8.02
2018-10-02T03:37:51.495Z,8.02
2018-10-02T03:40:20.074Z,8.02
2018-10-02T03:42:49.008Z,8.09
2018-10-02T03:45:17.537Z,8.15
2018-10-02T03:47:46.313Z,8.21
2018-10-02T03:50:14.944Z,8.22
2018-10-02T03:52:43.486Z,8.23
2018-10-02T03:55:12.069Z,8.22
2018-10-02T03:57:40.558Z,8.29
2018-10-02T04:00:09.442Z,8.37
2018-10-02T04:02:38.078Z,8.46
2018-10-02T04:05:07.340Z,8.51
2018-10-02T04:07:35.957Z,8.55
2018-10-02T04:10:04.615Z,8.61
2018-10-02T04:12:33.106Z,8.67
2018-10-02T04:15:01.593Z,8.73
2018-10-02T04:17:30.271Z,8.77
2018-10-02T04:19:58.925Z,8.78
2018-10-02T04:22:27.682Z,8.82
2018-10-02T04:24:56.396Z,8.83
2018-10-02T04:27:25.167Z,8.82
2018-10-02T04:29:54.049Z,8.81
2018-10-02T04:32:22.740Z,8.84
2018-10-02T04:34:51.394Z,8.87
2018-10-02T04:37:19.903Z,8.89
2018-10-02T04:39:48.631Z,8.95
2018-10-02T04:42:17.090Z,8.97
2018-10-02T04:44:45.838Z,9.00
2018-10-02T04:47:14.563Z,9.02
2018-10-02T04:49:43.378Z,9.06
2018-10-02T04:52:12.026Z,8.74
2018-10-02T04:54:40.696Z,9.14
2018-10-02T04:57:09.410Z,9.15
2018-10-02T04:59:38.136Z,9.16
2018-10-02T05:02:07.127Z,8.86
2018-10-02T05:04:35.657Z,9.18
2018-10-02T05:07:04.520Z,9.24
2018-10-02T05:09:33.059Z,9.25
2018-10-02T05:12:01.755Z,9.27
2018-10-02T05:14:30.323Z,9.29
2018-10-02T05:16:59.032Z,9.28
2018-10-02T05:19:27.883Z,9.35
2018-10-02T05:21:56.570Z,9.42
2018-10-02T05:24:25.440Z,9.43
2018-10-02T05:26:53.974Z,9.42
2018-10-02T05:29:23.012Z,9.40
2018-10-02T05:31:51.675Z,9.34
2018-10-02T05:34:20.256Z,9.37
2018-10-02T05:36:48.985Z,9.35
2018-10-02T05:39:17.589Z,9.32
2018-10-02T05:41:46.406Z,9.26
2018-10-02T05:44:15.605Z,9.23
2018-10-02T05:46:44.749Z,9.18
2018-10-02T05:49:13.279Z,9.06
2018-10-02T05:51:42.237Z,9.01
2018-10-02T05:54:10.774Z,8.98
2018-10-02T05:56:39.350Z,8.94
2018-10-02T05:59:07.955Z,8.92
2018-10-02T06:01:36.598Z,8.91
2018-10-02T06:04:05.548Z,8.91
2018-10-02T06:06:34.085Z,8.86
2018-10-02T06:09:03.355Z,8.54
2018-10-02T06:11:32.016Z,8.80
2018-10-02T06:14:00.678Z,8.80
2018-10-02T06:16:29.225Z,8.81
2018-10-02T06:18:57.931Z,8.80
2018-10-02T06:21:26.564Z,8.81
2018-10-02T06:23:55.466Z,8.82
2018-10-02T06:26:24.191Z,8.84
2018-10-02T06:28:52.694Z,8.84
2018-10-02T06:31:21.596Z,8.85
2018-10-02T06:33:50.138Z,8.84
2018-10-02T06:36:18.781Z,8.85
2018-10-02T06:38:47.391Z,8.85
2018-10-02T06:41:15.840Z,8.88
2018-10-02T06:43:44.739Z,8.89
2018-10-02T06:46:13.314Z,8.90
2018-10-02T06:48:42.334Z,8.91
2018-10-02T06:51:10.888Z,8.94
2018-10-02T06:53:39.904Z,8.96
2018-10-02T06:56:08.492Z,8.97
2018-10-02T06:58:37.096Z,9.00
2018-10-02T07:01:05.704Z,9.00
2018-10-02T07:03:34.227Z,9.01
2018-10-02T07:06:03.138Z,8.72
2018-10-02T07:08:31.690Z,9.01
2018-10-02T07:11:00.406Z,8.97
2018-10-02T07:13:29.041Z,8.94
2018-10-02T07:15:57.651Z,8.90
2018-10-02T07:18:26.208Z,8.92
2018-10-02T07:20:54.770Z,8.94
2018-10-02T07:23:23.579Z,8.99
2018-10-02T07:25:52.110Z,9.03
2018-10-02T07:28:21.028Z,9.10
2018-10-02T07:30:49.769Z,9.12
2018-10-02T07:33:18.462Z,9.17
2018-10-02T07:35:47.107Z,9.18
2018-10-02T07:38:15.650Z,9.17
2018-10-02T07:40:44.216Z,9.16
2018-10-02T07:43:12.795Z,9.18
2018-10-02T07:45:41.539Z,9.14
2018-10-02T07:48:10.170Z,9.11
2018-10-02T07:50:39.165Z,8.52
2018-10-02T07:53:07.779Z,9.09
2018-10-02T07:55:36.535Z,9.08
2018-10-02T07:58:05.171Z,9.09
2018-10-02T08:00:33.779Z,9.10
2018-10-02T08:03:02.357Z,9.05
2018-10-02T08:05:30.882Z,9.07
2018-10-02T08:07:59.718Z,9.11
2018-10-02T08:10:28.264Z,9.14
2018-10-02T08:12:57.225Z,9.06
2018-10-02T08:15:25.800Z,8.99
2018-10-02T08:17:54.452Z,8.98
2018-10-02T08:20:23.162Z,9.00
2018-10-02T08:22:51.678Z,8.72
2018-10-02T08:25:20.482Z,9.06
2018-10-02T08:27:48.992Z,9.09
2018-10-02T08:30:17.847Z,9.05
2018-10-02T08:32:46.692Z,9.01
2018-10-02T08:35:15.362Z,9.05
2018-10-02T08:37:44.245Z,9.03
2018-10-02T08:40:12.920Z,9.08
2018-10-02T08:42:41.451Z,9.11
2018-10-02T08:45:10.194Z,9.12
2018-10-02T08:47:38.875Z,9.10
2018-10-02T08:50:07.507Z,9.11
2018-10-02T08:52:36.402Z,9.14
2018-10-02T08:55:05.459Z,9.17
2018-10-02T08:57:34.368Z,9.12
2018-10-02T09:00:03.007Z,9.11
2018-10-02T09:02:31.566Z,9.16
2018-10-02T09:05:00.186Z,9.19
2018-10-02T09:07:28.702Z,9.23
2018-10-02T09:09:57.395Z,9.23
2018-10-02T09:12:25.941Z,9.27
2018-10-02T09:14:54.530Z,9.33
2018-10-02T09:17:23.148Z,9.39
2018-10-02T09:19:51.785Z,9.38
2018-10-02T09:22:20.378Z,9.46
2018-10-02T09:24:48.909Z,9.47
2018-10-02T09:27:17.762Z,9.45
2018-10-02T09:29:51.466Z,9.42
2018-10-02T09:32:25.246Z,9.30
2018-10-02T09:34:59.052Z,9.32
2018-10-02T09:38:30.472Z,9.27
2018-10-02T09:41:04.274Z,9.25
2018-10-02T09:43:38.999Z,9.14
2018-10-02T09:46:07.802Z,9.18
2018-10-02T09:48:36.340Z,9.24
2018-10-02T09:51:05.347Z,9.24
2018-10-02T09:53:34.090Z,9.29
2018-10-02T09:56:03.308Z,9.34
2018-10-02T09:58:31.907Z,9.41
2018-10-02T10:01:05.566Z,9.40
2018-10-02T10:03:34.398Z,9.42
2018-10-02T10:06:03.148Z,9.34
2018-10-02T10:08:31.731Z,9.31
2018-10-02T10:11:00.315Z,9.30
2018-10-02T10:13:28.948Z,9.27
2018-10-02T10:15:57.535Z,9.26
2018-10-02T10:18:26.178Z,9.23
2018-10-02T10:20:54.897Z,9.21
2018-10-02T10:23:23.849Z,8.94
2018-10-02T10:25:52.382Z,9.21
2018-10-02T10:28:21.504Z,9.24
2018-10-02T10:30:50.030Z,9.32
2018-10-02T10:33:18.924Z,9.32
2018-10-02T10:35:47.495Z,9.30
2018-10-02T10:38:16.203Z,9.30
2018-10-02T10:40:44.856Z,9.17
2018-10-02T10:43:13.447Z,9.23
2018-10-02T10:45:42.002Z,9.18
2018-10-02T10:48:10.532Z,9.21
2018-10-02T10:50:39.794Z,9.20
2018-10-02T10:53:08.409Z,9.20
2018-10-02T10:55:38.441Z,9.22
2018-10-02T10:58:07.050Z,9.22
2018-10-02T11:00:35.799Z,9.26
2018-10-02T11:03:04.497Z,9.24
2018-10-02T11:05:32.998Z,9.28
2018-10-02T11:08:01.814Z,9.02
2018-10-02T11:10:30.354Z,9.36
2018-10-02T11:12:59.294Z,9.31
2018-10-02T11:15:29.853Z,9.36
2018-10-02T11:17:59.114Z,9.17
2018-10-02T11:20:32.118Z,9.45
2018-10-02T11:23:00.619Z,9.47
2018-10-02T11:25:29.317Z,9.49
2018-10-02T11:27:57.953Z,9.53
2018-10-02T11:30:26.596Z,9.56
2018-10-02T11:32:55.325Z,9.61
2018-10-02T11:35:24.068Z,9.68
2018-10-02T11:37:52.644Z,9.81
2018-10-02T11:40:21.277Z,9.91
2018-10-02T11:42:50.264Z,10.03
2018-10-02T11:45:18.898Z,10.15
2018-10-02T11:47:47.451Z,10.23
2018-10-02T11:50:16.325Z,10.25
2018-10-02T11:52:45.881Z,10.35
2018-10-02T11:55:14.784Z,10.38
2018-10-02T11:57:43.301Z,10.54
2018-10-02T12:00:12.334Z,10.56
2018-10-02T12:02:40.876Z,10.54
2018-10-02T12:05:09.622Z,10.55
2018-10-02T12:07:38.294Z,10.62
2018-10-02T12:10:06.927Z,10.65
2018-10-02T12:12:35.518Z,10.71
2018-10-02T12:15:04.122Z,10.68
2018-10-02T12:17:32.935Z,10.73
2018-10-02T12:20:01.602Z,10.82
2018-10-02T12:22:30.340Z,10.92
2018-10-02T12:24:58.835Z,11.11
2018-10-02T12:27:27.691Z,11.23
2018-10-02T12:29:56.355Z,11.36
2018-10-02T12:32:24.891Z,11.51
2018-10-02T12:34:53.530Z,11.59
2018-10-02T12:37:22.026Z,11.76
2018-10-02T12:39:50.782Z,11.87
2018-10-02T12:42:19.432Z,11.93
2018-10-02T12:44:48.061Z,11.98
2018-10-02T12:47:16.656Z,12.08
2018-10-02T12:49:45.214Z,12.16
2018-10-02T12:52:13.824Z,11.99
2018-10-02T12:54:42.387Z,12.12
2018-10-02T12:57:11.394Z,12.04
2018-10-02T12:59:39.922Z,11.90
2018-10-02T13:02:08.679Z,11.86
2018-10-02T13:04:37.282Z,11.86
2018-10-02T13:07:05.985Z,11.94
2018-10-02T13:09:34.470Z,11.99
2018-10-02T13:12:03.041Z,11.98
2018-10-02T13:14:31.932Z,11.91
2018-10-02T13:17:00.414Z,11.81
2018-10-02T13:19:29.298Z,11.76
2018-10-02T13:21:57.883Z,11.67
2018-10-02T13:24:26.434Z,11.48
2018-10-02T13:26:54.978Z,11.33
2018-10-02T13:29:23.458Z,11.21
2018-10-02T13:31:53.546Z,10.92
2018-10-02T13:34:23.115Z,11.35
2018-10-02T13:36:51.839Z,11.46
2018-10-02T13:39:20.345Z,11.58
2018-10-02T13:41:49.393Z,11.60
2018-10-02T13:44:17.867Z,11.51
2018-10-02T13:46:46.761Z,11.27
2018-10-02T13:49:15.241Z,11.14
2018-10-02T13:51:43.938Z,10.90
2018-10-02T13:54:12.519Z,10.77
2018-10-02T13:56:41.078Z,10.70
2018-10-02T13:59:09.774Z,10.12
2018-10-02T14:01:38.370Z,10.73
2018-10-02T14:04:07.268Z,10.79
2018-10-02T14:06:35.749Z,10.88
2018-10-02T14:09:05.625Z,11.06
2018-10-02T14:11:34.174Z,11.17
2018-10-02T14:14:02.859Z,11.36
2018-10-02T14:16:32.178Z,11.40
2018-10-02T14:19:00.899Z,11.56
2018-10-02T14:21:29.588Z,11.62
2018-10-02T14:23:58.146Z,11.65
2018-10-02T14:26:27.084Z,11.41
2018-10-02T14:28:55.582Z,11.64
2018-10-02T14:31:24.388Z,11.19
2018-10-02T14:33:53.006Z,11.47
2018-10-02T14:36:21.619Z,11.38
2018-10-02T14:38:50.099Z,11.35
2018-10-02T14:41:18.668Z,11.19
2018-10-02T14:43:47.370Z,11.18
2018-10-02T14:46:15.947Z,11.23
2018-10-02T14:48:45.242Z,10.93
2018-10-02T14:51:13.731Z,11.48
2018-10-02T14:53:42.273Z,11.46
2018-10-02T14:56:10.843Z,11.44
2018-10-02T14:58:39.340Z,11.46
2018-10-02T15:01:07.982Z,11.49
2018-10-02T15:03:36.542Z,11.45
2018-10-02T15:06:05.442Z,11.42
2018-10-02T15:08:34.882Z,11.44
2018-10-02T15:11:03.619Z,11.15
2018-10-02T15:13:32.515Z,11.48
2018-10-02T15:16:01.226Z,11.54
2018-10-02T15:18:29.834Z,11.56
2018-10-02T15:20:58.714Z,11.60
2018-10-02T15:23:27.305Z,11.57
2018-10-02T15:25:55.847Z,11.61
2018-10-02T15:28:24.682Z,11.58
2018-10-02T15:30:53.223Z,11.55
2018-10-02T15:33:22.117Z,11.58
2018-10-02T15:35:50.741Z,11.54
2018-10-02T15:38:19.424Z,11.50
2018-10-02T15:40:47.978Z,11.43
2018-10-02T15:43:16.574Z,11.39
2018-10-02T15:45:45.238Z,11.37
2018-10-02T15:48:13.784Z,11.31
2018-10-02T15:50:42.672Z,10.84
2018-10-02T15:53:11.190Z,11.24
2018-10-02T15:55:40.190Z,11.24
2018-10-02T15:58:08.761Z,11.18
2018-10-02T16:00:37.476Z,11.13
2018-10-02T16:03:05.998Z,11.14
2018-10-02T16:05:34.587Z,11.15
2018-10-02T16:08:03.483Z,11.17
2018-10-02T16:10:32.056Z,11.14
2018-10-02T16:13:01.014Z,11.15
2018-10-02T16:15:29.578Z,11.12
2018-10-02T16:17:58.435Z,11.12
2018-10-02T16:20:27.188Z,11.09
2018-10-02T16:22:55.977Z,11.02
2018-10-02T16:25:24.590Z,11.02
2018-10-02T16:27:53.123Z,11.01
2018-10-02T16:30:21.804Z,10.33
2018-10-02T16:32:50.326Z,10.95
2018-10-02T16:35:19.141Z,10.94
2018-10-02T16:37:47.705Z,10.91
2018-10-02T16:40:16.522Z,10.89
2018-10-02T16:42:44.896Z,10.83
2018-10-02T16:45:13.385Z,10.86
2018-10-02T16:47:42.241Z,10.84
2018-10-02T16:50:10.741Z,10.85
2018-10-02T16:52:39.538Z,10.30
2018-10-02T16:55:07.690Z,10.80
2018-10-02T16:57:36.222Z,10.80
2018-10-02T17:00:05.434Z,10.79
2018-10-02T17:02:34.050Z,10.77
2018-10-02T17:05:02.878Z,10.71
2018-10-02T17:07:31.531Z,10.72
2018-10-02T17:10:00.638Z,10.75
2018-10-02T17:12:29.138Z,10.71
2018-10-02T17:14:58.042Z,10.73
2018-10-02T17:17:26.604Z,10.75
2018-10-02T17:19:55.302Z,10.76
2018-10-02T17:22:23.899Z,10.75
2018-10-02T17:24:52.535Z,10.75
2018-10-02T17:27:21.182Z,10.70
2018-10-02T17:29:49.686Z,10.66
2018-10-02T17:32:18.414Z,10.67
2018-10-02T17:34:47.108Z,10.65
2018-10-02T17:37:15.662Z,10.64
2018-10-02T17:39:44.206Z,10.60
2018-10-02T17:42:12.903Z,10.59
2018-10-02T17:44:41.622Z,10.52
2018-10-02T17:47:10.562Z,10.53
2018-10-02T17:49:39.442Z,10.47
2018-10-02T17:52:08.439Z,10.47
2018-10-02T17:54:37.420Z,10.45
2018-10-02T17:57:05.908Z,10.37
2018-10-02T17:59:34.566Z,10.37
2018-10-02T18:02:03.215Z,10.39
2018-10-02T18:04:31.687Z,10.41
2018-10-02T18:07:00.768Z,10.41
2018-10-02T18:09:30.561Z,10.38
2018-10-02T18:11:59.899Z,10.37
2018-10-02T18:14:30.556Z,10.32
2018-10-02T18:17:00.794Z,10.03
2018-10-02T18:19:30.490Z,10.28
2018-10-02T18:21:59.350Z,10.27
2018-10-02T18:24:28.317Z,10.28
2018-10-02T18:26:57.087Z,10.31
2018-10-02T18:29:25.679Z,10.33
2018-10-02T18:31:54.398Z,10.38
2018-10-02T18:34:22.931Z,10.39
2018-10-02T18:36:52.725Z,10.39
2018-10-02T18:39:21.291Z,10.40
2018-10-02T18:41:50.035Z,10.43
2018-10-02T18:44:18.782Z,10.47
2018-10-02T18:46:47.410Z,10.46
2018-10-02T18:49:15.974Z,10.43
2018-10-02T18:51:44.535Z,10.41
2018-10-02T18:54:13.313Z,10.41
2018-10-02T18:56:48.645Z,10.41
2018-10-02T18:59:17.227Z,10.44
2018-10-02T19:01:46.044Z,10.44
2018-10-02T19:04:14.641Z,10.43
2018-10-02T19:06:43.211Z,10.42
2018-10-02T19:09:17.202Z,10.38
2018-10-02T19:11:51.242Z,10.01
2018-10-02T19:14:20.713Z,10.34
2018-10-02T19:16:49.199Z,10.29
2018-10-02T19:19:23.091Z,10.25
2018-10-02T19:21:51.637Z,10.26
2018-10-02T19:24:20.174Z,10.25
2018-10-02T19:26:48.746Z,10.23
2018-10-02T19:29:17.442Z,10.22
2018-10-02T19:31:51.278Z,10.17
2018-10-02T19:34:19.895Z,9.99
2018-10-02T19:36:48.395Z,10.10
2018-10-02T19:39:22.232Z,10.08
2018-10-02T19:41:51.466Z,9.97
2018-10-02T19:44:19.955Z,9.91
2018-10-02T19:46:53.923Z,9.85
2018-10-02T19:49:23.918Z,9.76
2018-10-02T19:52:13.403Z,9.71
2018-10-02T19:54:42.144Z,9.57
2018-10-02T19:57:12.246Z,9.51
2018-10-02T19:59:40.896Z,9.43
2018-10-02T20:02:09.466Z,9.34
2018-10-02T20:04:38.566Z,9.26
2018-10-02T20:07:08.167Z,9.23
2018-10-02T20:09:36.971Z,9.12
2018-10-02T20:12:05.506Z,9.03
2018-10-02T20:14:34.449Z,8.89
2018-10-02T20:17:03.001Z,8.76
2018-10-02T20:19:31.638Z,8.63
2018-10-02T20:22:00.307Z,8.55
2018-10-02T20:24:28.840Z,8.47
2018-10-02T20:26:57.593Z,8.28
2018-10-02T20:29:26.171Z,8.36
2018-10-02T20:31:54.924Z,8.31
2018-10-02T20:34:23.541Z,8.26
2018-10-02T20:36:52.139Z,8.28
2018-10-02T20:39:20.614Z,8.20
2018-10-02T20:41:49.155Z,8.11
2018-10-02T20:44:17.783Z,7.73
2018-10-02T20:46:46.993Z,7.98
2018-10-02T20:49:15.800Z,7.88
2018-10-02T20:51:44.219Z,7.89
2018-10-02T20:54:13.290Z,7.75
2018-10-02T20:56:41.839Z,7.77
2018-10-02T20:59:10.374Z,7.81
2018-10-02T21:01:39.038Z,7.72
2018-10-02T21:04:07.822Z,7.65
2018-10-02T21:06:36.550Z,7.45
2018-10-02T21:09:06.328Z,7.50
2018-10-02T21:11:35.070Z,7.42
2018-10-02T21:14:03.612Z,7.41
2018-10-02T21:16:32.331Z,7.35
2018-10-02T21:19:00.930Z,7.33
2018-10-02T21:21:29.450Z,7.30
2018-10-02T21:23:57.998Z,7.23
2018-10-02T21:26:26.502Z,7.19
2018-10-02T21:28:55.359Z,7.15
2018-10-02T21:31:23.909Z,7.07
2018-10-02T21:33:52.616Z,6.55
2018-10-02T21:36:21.225Z,7.02
2018-10-02T21:38:49.842Z,6.98
2018-10-02T21:41:18.334Z,6.98
2018-10-02T21:43:46.889Z,6.95
2018-10-02T21:46:15.624Z,6.65
2018-10-02T21:48:44.144Z,6.85
2018-10-02T21:51:12.866Z,6.87
2018-10-02T21:53:41.391Z,6.93
2018-10-02T21:56:10.253Z,6.90
2018-10-02T21:58:39.516Z,6.92
2018-10-02T22:01:08.216Z,6.87
2018-10-02T22:03:39.589Z,6.80
2018-10-02T22:06:08.632Z,6.77
2018-10-02T22:08:37.328Z,6.70
2018-10-02T22:11:06.035Z,6.66
2018-10-02T22:13:34.579Z,6.62
2018-10-02T22:16:03.085Z,6.61
2018-10-02T22:18:31.830Z,6.33
2018-10-02T22:21:00.337Z,6.53
2018-10-02T22:23:29.210Z,6.46
2018-10-02T22:25:58.414Z,6.41
2018-10-02T22:28:27.291Z,6.40
2018-10-02T22:30:55.811Z,6.36
2018-10-02T22:33:24.511Z,6.34
2018-10-02T22:35:53.031Z,6.29
2018-10-02T22:38:21.743Z,6.30
2018-10-02T22:40:50.466Z,5.97
2018-10-02T22:43:19.032Z,6.28
2018-10-02T22:45:47.778Z,5.84
2018-10-02T22:48:16.334Z,6.24
2018-10-02T22:50:45.126Z,6.20
2018-10-02T22:53:13.717Z,6.24
2018-10-02T22:55:42.270Z,6.27
2018-10-02T22:58:10.756Z,5.89
2018-10-02T23:00:39.374Z,6.36
2018-10-02T23:03:08.204Z,6.38
2018-10-02T23:05:36.704Z,6.39
2018-10-02T23:08:05.378Z,6.42
2018-10-02T23:10:33.903Z,6.46
2018-10-02T23:13:02.535Z,6.46
2018-10-02T23:15:31.156Z,6.50
2018-10-02T23:17:59.762Z,6.50
2018-10-02T23:20:28.550Z,6.50
2018-10-02T23:22:57.104Z,6.52
2018-10-02T23:25:25.848Z,6.52
2018-10-02T23:27:54.452Z,6.52
2018-10-02T23:30:23.065Z,6.50
2018-10-02T23:32:51.728Z,6.52
2018-10-02T23:35:20.242Z,6.47
2018-10-02T23:37:49.142Z,6.42
2018-10-02T23:40:17.684Z,6.42
2018-10-02T23:42:46.338Z,6.44
2018-10-02T23:45:15.122Z,6.44
2018-10-02T23:47:43.741Z,6.48
2018-10-02T23:50:12.294Z,6.51
2018-10-02T23:52:40.822Z,6.52
2018-10-02T23:55:09.528Z,6.54
2018-10-02T23:57:38.113Z,6.53
